Terminal Aerodrome Forecast
Issued by NWS

Home | Current Version | Previous Version | Text Only | Print | Product List | Glossary On
Versions: 1 2 3 4 5 6 7 8 9 10 11 12 13 14 15 16 17 18 19 20 21 22 23 24 25 26 27 28
000
FTUS46 KMTR 301700
TAFSFO
TAF
KSFO 301733Z 3018/3124 30011KT P6SM FEW005
     FM302100 31017KT P6SM FEW150
     FM310400 29010KT P6SM FEW010
     FM311300 29006KT P6SM SCT009
     FM312100 30014KT P6SM FEW009=

USA.gov is the U.S. government's official web portal to all federal, state and local government web resources and services.